sensor_id;sensor_type;location;lat;lon;timestamp;pressure;altitude;pressure_sealevel;temperature;humidity
62952;BME280;52163;52.212;-1.002;2022-07-06T00:00:53;101724.77;;;12.23;64.70
62952;BME280;52163;52.212;-1.002;2022-07-06T00:03:18;101724.41;;;12.15;64.91
62952;BME280;52163;52.212;-1.002;2022-07-06T00:05:44;101723.33;;;12.09;65.16
62952;BME280;52163;52.212;-1.002;2022-07-06T00:08:09;101719.66;;;12.03;65.52
62952;BME280;52163;52.212;-1.002;2022-07-06T00:10:35;101715.30;;;12.02;65.70
62952;BME280;52163;52.212;-1.002;2022-07-06T00:13:00;101717.73;;;12.03;65.65
62952;BME280;52163;52.212;-1.002;2022-07-06T00:15:25;101717.73;;;12.03;65.67
62952;BME280;52163;52.212;-1.002;2022-07-06T00:17:51;101711.30;;;12.05;65.81
62952;BME280;52163;52.212;-1.002;2022-07-06T00:20:16;101708.08;;;12.06;65.80
62952;BME280;52163;52.212;-1.002;2022-07-06T00:22:42;101708.27;;;12.05;65.89
62952;BME280;52163;52.212;-1.002;2022-07-06T00:25:08;101702.50;;;12.03;65.86
62952;BME280;52163;52.212;-1.002;2022-07-06T00:27:34;101700.25;;;12.02;66.04
62952;BME280;52163;52.212;-1.002;2022-07-06T00:29:59;101696.99;;;11.99;66.13
62952;BME280;52163;52.212;-1.002;2022-07-06T00:32:24;101697.75;;;11.98;66.18
62952;BME280;52163;52.212;-1.002;2022-07-06T00:34:50;101700.34;;;12.00;66.31
62952;BME280;52163;52.212;-1.002;2022-07-06T00:37:16;101702.33;;;12.03;66.44
62952;BME280;52163;52.212;-1.002;2022-07-06T00:39:41;101695.57;;;12.08;66.47
62952;BME280;52163;52.212;-1.002;2022-07-06T00:42:07;101695.65;;;12.13;66.56
62952;BME280;52163;52.212;-1.002;2022-07-06T00:44:32;101688.28;;;12.19;66.61
62952;BME280;52163;52.212;-1.002;2022-07-06T00:46:59;101691.59;;;12.28;66.53
62952;BME280;52163;52.212;-1.002;2022-07-06T00:49:25;101692.58;;;12.37;66.38
62952;BME280;52163;52.212;-1.002;2022-07-06T00:52:09;101696.13;;;12.47;66.21
62952;BME280;52163;52.212;-1.002;2022-07-06T00:54:36;101688.92;;;12.57;66.09
62952;BME280;52163;52.212;-1.002;2022-07-06T00:57:01;101679.92;;;12.63;66.16
62952;BME280;52163;52.212;-1.002;2022-07-06T00:59:28;101676.26;;;12.69;65.98
62952;BME280;52163;52.212;-1.002;2022-07-06T01:01:53;101673.92;;;12.73;66.14
62952;BME280;52163;52.212;-1.002;2022-07-06T01:04:18;101674.13;;;12.76;66.15
62952;BME280;52163;52.212;-1.002;2022-07-06T01:06:45;101667.31;;;12.78;66.24
62952;BME280;52163;52.212;-1.002;2022-07-06T01:09:12;101667.00;;;12.81;66.31
62952;BME280;52163;52.212;-1.002;2022-07-06T01:11:38;101668.56;;;12.85;66.26
62952;BME280;52163;52.212;-1.002;2022-07-06T01:14:03;101674.34;;;12.90;66.22
62952;BME280;52163;52.212;-1.002;2022-07-06T01:16:30;101676.88;;;12.96;66.13
62952;BME280;52163;52.212;-1.002;2022-07-06T01:18:55;101677.99;;;13.01;66.11
62952;BME280;52163;52.212;-1.002;2022-07-06T01:21:21;101677.20;;;13.10;66.04
62952;BME280;52163;52.212;-1.002;2022-07-06T01:23:47;101675.94;;;13.17;65.89
62952;BME280;52163;52.212;-1.002;2022-07-06T01:26:15;101676.16;;;13.23;65.92
62952;BME280;52163;52.212;-1.002;2022-07-06T01:28:41;101681.50;;;13.26;65.81
62952;BME280;52163;52.212;-1.002;2022-07-06T01:31:34;101686.18;;;13.28;65.79
62952;BME280;52163;52.212;-1.002;2022-07-06T01:33:59;101688.96;;;13.29;65.77
62952;BME280;52163;52.212;-1.002;2022-07-06T01:36:25;101691.20;;;13.31;65.95
62952;BME280;52163;52.212;-1.002;2022-07-06T01:38:55;101691.00;;;13.31;65.86
62952;BME280;52163;52.212;-1.002;2022-07-06T01:41:24;101689.23;;;13.31;65.82
62952;BME280;52163;52.212;-1.002;2022-07-06T01:43:50;101689.17;;;13.32;65.85
62952;BME280;52163;52.212;-1.002;2022-07-06T01:46:15;101693.54;;;13.33;65.98
62952;BME280;52163;52.212;-1.002;2022-07-06T01:48:40;101699.05;;;13.36;65.88
62952;BME280;52163;52.212;-1.002;2022-07-06T01:51:06;101697.04;;;13.41;65.85
62952;BME280;52163;52.212;-1.002;2022-07-06T01:53:32;101693.96;;;13.46;65.89
62952;BME280;52163;52.212;-1.002;2022-07-06T01:55:57;101694.41;;;13.51;65.84
62952;BME280;52163;52.212;-1.002;2022-07-06T01:58:23;101694.60;;;13.54;65.74
62952;BME280;52163;52.212;-1.002;2022-07-06T02:00:48;101696.13;;;13.59;65.75
62952;BME280;52163;52.212;-1.002;2022-07-06T02:03:14;101693.48;;;13.61;65.72
62952;BME280;52163;52.212;-1.002;2022-07-06T02:05:40;101691.59;;;13.63;65.58
62952;BME280;52163;52.212;-1.002;2022-07-06T02:08:05;101685.91;;;13.67;65.54
62952;BME280;52163;52.212;-1.002;2022-07-06T02:10:31;101683.98;;;13.70;65.46
62952;BME280;52163;52.212;-1.002;2022-07-06T02:12:56;101680.55;;;13.71;65.39
62952;BME280;52163;52.212;-1.002;2022-07-06T02:15:21;101678.54;;;13.72;65.50
62952;BME280;52163;52.212;-1.002;2022-07-06T02:17:48;101679.25;;;13.72;65.46
62952;BME280;52163;52.212;-1.002;2022-07-06T02:20:13;101678.03;;;13.72;65.66
62952;BME280;52163;52.212;-1.002;2022-07-06T02:22:39;101673.52;;;13.73;65.66
62952;BME280;52163;52.212;-1.002;2022-07-06T02:25:05;101670.52;;;13.76;65.94
62952;BME280;52163;52.212;-1.002;2022-07-06T02:27:31;101668.71;;;13.80;66.15
62952;BME280;52163;52.212;-1.002;2022-07-06T02:29:56;101669.13;;;13.85;66.38
62952;BME280;52163;52.212;-1.002;2022-07-06T02:32:22;101663.36;;;13.90;66.62
62952;BME280;52163;52.212;-1.002;2022-07-06T02:34:47;101666.23;;;13.92;66.80
62952;BME280;52163;52.212;-1.002;2022-07-06T02:37:13;101664.55;;;13.93;66.95
62952;BME280;52163;52.212;-1.002;2022-07-06T02:39:38;101659.67;;;13.95;67.43
62952;BME280;52163;52.212;-1.002;2022-07-06T02:42:04;101657.96;;;13.97;67.65
62952;BME280;52163;52.212;-1.002;2022-07-06T02:44:29;101652.91;;;13.99;68.04
62952;BME280;52163;52.212;-1.002;2022-07-06T02:46:55;101653.67;;;14.01;68.35
62952;BME280;52163;52.212;-1.002;2022-07-06T02:49:20;101656.59;;;14.03;68.50
62952;BME280;52163;52.212;-1.002;2022-07-06T02:51:45;101652.30;;;14.06;68.92
62952;BME280;52163;52.212;-1.002;2022-07-06T02:54:11;101649.77;;;14.10;69.00
62952;BME280;52163;52.212;-1.002;2022-07-06T02:56:36;101643.28;;;14.15;69.22
62952;BME280;52163;52.212;-1.002;2022-07-06T02:59:02;101655.95;;;14.20;69.29
62952;BME280;52163;52.212;-1.002;2022-07-06T03:01:27;101662.58;;;14.26;69.27
62952;BME280;52163;52.212;-1.002;2022-07-06T03:03:53;101668.32;;;14.31;69.22
62952;BME280;52163;52.212;-1.002;2022-07-06T03:06:18;101672.59;;;14.34;69.32
62952;BME280;52163;52.212;-1.002;2022-07-06T03:08:43;101665.93;;;14.36;69.36
62952;BME280;52163;52.212;-1.002;2022-07-06T03:11:09;101657.20;;;14.36;69.45
62952;BME280;52163;52.212;-1.002;2022-07-06T03:13:35;101651.77;;;14.37;69.35
62952;BME280;52163;52.212;-1.002;2022-07-06T03:16:00;101646.81;;;14.40;69.49
62952;BME280;52163;52.212;-1.002;2022-07-06T03:18:26;101640.60;;;14.43;69.61
62952;BME280;52163;52.212;-1.002;2022-07-06T03:20:51;101637.45;;;14.48;69.41
62952;BME280;52163;52.212;-1.002;2022-07-06T03:23:17;101628.55;;;14.55;69.19
62952;BME280;52163;52.212;-1.002;2022-07-06T03:25:42;101623.95;;;14.60;68.93
62952;BME280;52163;52.212;-1.002;2022-07-06T03:28:07;101617.27;;;14.62;68.90
62952;BME280;52163;52.212;-1.002;2022-07-06T03:30:33;101621.14;;;14.63;68.90
62952;BME280;52163;52.212;-1.002;2022-07-06T03:32:58;101616.30;;;14.60;68.81
62952;BME280;52163;52.212;-1.002;2022-07-06T03:35:24;101620.13;;;14.56;68.83
62952;BME280;52163;52.212;-1.002;2022-07-06T03:37:49;101628.61;;;14.51;68.66
62952;BME280;52163;52.212;-1.002;2022-07-06T03:40:14;101634.13;;;14.44;68.81
62952;BME280;52163;52.212;-1.002;2022-07-06T03:42:40;101636.44;;;14.38;68.93
62952;BME280;52163;52.212;-1.002;2022-07-06T03:45:06;101635.16;;;14.33;68.86
62952;BME280;52163;52.212;-1.002;2022-07-06T03:47:32;101632.73;;;14.32;68.81
62952;BME280;52163;52.212;-1.002;2022-07-06T03:49:57;101635.10;;;14.31;68.57
62952;BME280;52163;52.212;-1.002;2022-07-06T03:52:23;101637.73;;;14.28;68.51
62952;BME280;52163;52.212;-1.002;2022-07-06T03:54:48;101634.88;;;14.29;68.50
62952;BME280;52163;52.212;-1.002;2022-07-06T03:57:14;101639.27;;;14.26;68.44
62952;BME280;52163;52.212;-1.002;2022-07-06T03:59:40;101641.67;;;14.28;68.52
62952;BME280;52163;52.212;-1.002;2022-07-06T04:02:05;101642.80;;;14.30;68.33
62952;BME280;52163;52.212;-1.002;2022-07-06T04:04:33;101642.39;;;14.31;68.42
62952;BME280;52163;52.212;-1.002;2022-07-06T04:06:58;101650.45;;;14.30;68.26
62952;BME280;52163;52.212;-1.002;2022-07-06T04:09:23;101654.52;;;14.30;68.45
62952;BME280;52163;52.212;-1.002;2022-07-06T04:11:49;101662.56;;;14.32;68.27
62952;BME280;52163;52.212;-1.002;2022-07-06T04:14:14;101664.55;;;14.35;68.37
62952;BME280;52163;52.212;-1.002;2022-07-06T04:16:40;101660.73;;;14.39;68.43
62952;BME280;52163;52.212;-1.002;2022-07-06T04:19:05;101662.05;;;14.47;68.41
62952;BME280;52163;52.212;-1.002;2022-07-06T04:21:30;101663.45;;;14.54;68.20
62952;BME280;52163;52.212;-1.002;2022-07-06T04:23:56;101663.74;;;14.58;67.93
62952;BME280;52163;52.212;-1.002;2022-07-06T04:26:21;101657.44;;;14.59;68.05
62952;BME280;52163;52.212;-1.002;2022-07-06T04:28:47;101655.83;;;14.62;67.96
62952;BME280;52163;52.212;-1.002;2022-07-06T04:31:12;101659.77;;;14.62;68.06
62952;BME280;52163;52.212;-1.002;2022-07-06T04:33:41;101657.58;;;14.63;68.30
62952;BME280;52163;52.212;-1.002;2022-07-06T04:36:08;101661.11;;;14.63;68.54
62952;BME280;52163;52.212;-1.002;2022-07-06T04:38:34;101655.80;;;14.66;68.65
62952;BME280;52163;52.212;-1.002;2022-07-06T04:40:59;101653.29;;;14.70;68.86
62952;BME280;52163;52.212;-1.002;2022-07-06T04:43:24;101651.83;;;14.74;69.07
62952;BME280;52163;52.212;-1.002;2022-07-06T04:45:50;101647.33;;;14.80;69.27
62952;BME280;52163;52.212;-1.002;2022-07-06T04:48:15;101650.19;;;14.89;69.31
62952;BME280;52163;52.212;-1.002;2022-07-06T04:50:41;101648.78;;;14.98;69.36
62952;BME280;52163;52.212;-1.002;2022-07-06T04:53:06;101649.89;;;15.03;69.39
62952;BME280;52163;52.212;-1.002;2022-07-06T04:55:32;101646.20;;;15.05;69.65
62952;BME280;52163;52.212;-1.002;2022-07-06T04:57:57;101642.79;;;15.08;69.62
62952;BME280;52163;52.212;-1.002;2022-07-06T05:00:23;101640.73;;;15.13;69.91
62952;BME280;52163;52.212;-1.002;2022-07-06T05:02:51;101644.64;;;15.19;69.90
62952;BME280;52163;52.212;-1.002;2022-07-06T05:05:17;101646.48;;;15.24;69.87
62952;BME280;52163;52.212;-1.002;2022-07-06T05:07:42;101647.02;;;15.29;70.10
62952;BME280;52163;52.212;-1.002;2022-07-06T05:10:09;101643.96;;;15.38;70.08
62952;BME280;52163;52.212;-1.002;2022-07-06T05:12:36;101649.83;;;15.47;70.17
62952;BME280;52163;52.212;-1.002;2022-07-06T05:15:02;101648.56;;;15.53;70.14
62952;BME280;52163;52.212;-1.002;2022-07-06T05:17:27;101654.09;;;15.59;70.26
62952;BME280;52163;52.212;-1.002;2022-07-06T05:19:52;101648.30;;;15.63;70.20
62952;BME280;52163;52.212;-1.002;2022-07-06T05:22:18;101650.83;;;15.65;70.03
62952;BME280;52163;52.212;-1.002;2022-07-06T05:24:44;101652.20;;;15.66;70.19
62952;BME280;52163;52.212;-1.002;2022-07-06T05:27:09;101650.94;;;15.66;70.31
62952;BME280;52163;52.212;-1.002;2022-07-06T05:29:35;101651.73;;;15.67;70.45
62952;BME280;52163;52.212;-1.002;2022-07-06T05:32:01;101659.55;;;15.71;70.50
62952;BME280;52163;52.212;-1.002;2022-07-06T05:34:27;101656.39;;;15.76;70.59
62952;BME280;52163;52.212;-1.002;2022-07-06T05:36:52;101658.76;;;15.84;70.71
62952;BME280;52163;52.212;-1.002;2022-07-06T05:39:18;101659.98;;;15.90;70.60
62952;BME280;52163;52.212;-1.002;2022-07-06T05:41:46;101655.66;;;15.96;70.58
62952;BME280;52163;52.212;-1.002;2022-07-06T05:44:12;101654.09;;;16.07;70.39
62952;BME280;52163;52.212;-1.002;2022-07-06T05:46:38;101655.25;;;16.19;70.21
62952;BME280;52163;52.212;-1.002;2022-07-06T05:49:03;101651.10;;;16.33;70.05
62952;BME280;52163;52.212;-1.002;2022-07-06T05:51:48;101657.29;;;16.53;69.77
62952;BME280;52163;52.212;-1.002;2022-07-06T05:54:14;101655.73;;;16.68;69.47
62952;BME280;52163;52.212;-1.002;2022-07-06T05:56:40;101657.44;;;16.77;69.38
62952;BME280;52163;52.212;-1.002;2022-07-06T05:59:05;101660.18;;;16.79;69.29
62952;BME280;52163;52.212;-1.002;2022-07-06T06:01:31;101653.84;;;16.80;69.22
62952;BME280;52163;52.212;-1.002;2022-07-06T06:03:56;101654.08;;;16.84;69.18
62952;BME280;52163;52.212;-1.002;2022-07-06T06:06:21;101650.05;;;16.89;69.22
62952;BME280;52163;52.212;-1.002;2022-07-06T06:08:47;101643.10;;;16.99;69.08
62952;BME280;52163;52.212;-1.002;2022-07-06T06:11:12;101647.96;;;17.09;68.99
62952;BME280;52163;52.212;-1.002;2022-07-06T06:13:38;101647.04;;;17.18;68.80
62952;BME280;52163;52.212;-1.002;2022-07-06T06:16:04;101648.11;;;17.25;68.60
62952;BME280;52163;52.212;-1.002;2022-07-06T06:18:29;101653.04;;;17.26;68.48
62952;BME280;52163;52.212;-1.002;2022-07-06T06:20:55;101655.82;;;17.32;68.35
62952;BME280;52163;52.212;-1.002;2022-07-06T06:23:20;101657.57;;;17.43;68.00
62952;BME280;52163;52.212;-1.002;2022-07-06T06:25:46;101656.33;;;17.57;67.59
62952;BME280;52163;52.212;-1.002;2022-07-06T06:28:11;101653.14;;;17.75;67.17
62952;BME280;52163;52.212;-1.002;2022-07-06T06:30:38;101656.62;;;17.91;66.72
62952;BME280;52163;52.212;-1.002;2022-07-06T06:33:12;101662.23;;;18.02;66.65
62952;BME280;52163;52.212;-1.002;2022-07-06T06:35:42;101663.91;;;18.14;66.16
62952;BME280;52163;52.212;-1.002;2022-07-06T06:38:08;101665.85;;;18.24;65.95
62952;BME280;52163;52.212;-1.002;2022-07-06T06:40:33;101664.48;;;18.30;65.77
62952;BME280;52163;52.212;-1.002;2022-07-06T06:42:59;101659.72;;;18.37;65.45
62952;BME280;52163;52.212;-1.002;2022-07-06T06:45:24;101660.88;;;18.49;65.35
62952;BME280;52163;52.212;-1.002;2022-07-06T06:47:50;101664.40;;;18.65;65.01
62952;BME280;52163;52.212;-1.002;2022-07-06T06:50:15;101653.10;;;18.74;64.76
62952;BME280;52163;52.212;-1.002;2022-07-06T06:52:41;101651.52;;;18.76;64.53
62952;BME280;52163;52.212;-1.002;2022-07-06T06:55:07;101653.45;;;18.77;64.36
62952;BME280;52163;52.212;-1.002;2022-07-06T06:57:33;101655.73;;;18.75;64.33
62952;BME280;52163;52.212;-1.002;2022-07-06T06:59:58;101655.65;;;18.71;64.60
62952;BME280;52163;52.212;-1.002;2022-07-06T07:02:23;101654.73;;;18.74;64.64
62952;BME280;52163;52.212;-1.002;2022-07-06T07:04:49;101653.45;;;18.77;64.39
62952;BME280;52163;52.212;-1.002;2022-07-06T07:07:14;101651.01;;;18.81;64.42
62952;BME280;52163;52.212;-1.002;2022-07-06T07:09:40;101659.04;;;18.88;64.17
62952;BME280;52163;52.212;-1.002;2022-07-06T07:12:06;101661.09;;;18.94;63.95
62952;BME280;52163;52.212;-1.002;2022-07-06T07:14:32;101661.52;;;19.03;63.72
62952;BME280;52163;52.212;-1.002;2022-07-06T07:16:59;101664.83;;;19.11;63.55
62952;BME280;52163;52.212;-1.002;2022-07-06T07:19:24;101664.16;;;19.19;63.22
62952;BME280;52163;52.212;-1.002;2022-07-06T07:21:50;101665.30;;;19.28;63.03
62952;BME280;52163;52.212;-1.002;2022-07-06T07:24:15;101663.81;;;19.38;62.90
62952;BME280;52163;52.212;-1.002;2022-07-06T07:26:41;101667.20;;;19.44;62.62
62952;BME280;52163;52.212;-1.002;2022-07-06T07:29:06;101671.69;;;19.47;62.48
62952;BME280;52163;52.212;-1.002;2022-07-06T07:31:32;101672.98;;;19.51;62.56
62952;BME280;52163;52.212;-1.002;2022-07-06T07:34:00;101668.02;;;19.57;62.31
62952;BME280;52163;52.212;-1.002;2022-07-06T07:36:26;101664.48;;;19.61;61.95
62952;BME280;52163;52.212;-1.002;2022-07-06T07:38:51;101662.12;;;19.65;61.83
62952;BME280;52163;52.212;-1.002;2022-07-06T07:41:17;101661.05;;;19.74;61.82
62952;BME280;52163;52.212;-1.002;2022-07-06T07:43:43;101660.25;;;19.89;61.61
62952;BME280;52163;52.212;-1.002;2022-07-06T07:46:09;101654.33;;;20.00;61.27
62952;BME280;52163;52.212;-1.002;2022-07-06T07:48:34;101656.11;;;20.07;60.66
62952;BME280;52163;52.212;-1.002;2022-07-06T07:51:00;101654.49;;;20.12;60.64
62952;BME280;52163;52.212;-1.002;2022-07-06T07:53:25;101645.39;;;20.17;60.45
62952;BME280;52163;52.212;-1.002;2022-07-06T07:55:51;101644.93;;;20.21;60.20
62952;BME280;52163;52.212;-1.002;2022-07-06T07:58:17;101640.58;;;20.28;59.88
62952;BME280;52163;52.212;-1.002;2022-07-06T08:00:42;101640.95;;;20.36;59.59
62952;BME280;52163;52.212;-1.002;2022-07-06T08:03:07;101639.90;;;20.44;59.37
62952;BME280;52163;52.212;-1.002;2022-07-06T08:05:33;101631.60;;;20.56;59.26
62952;BME280;52163;52.212;-1.002;2022-07-06T08:07:58;101622.06;;;20.67;58.86
62952;BME280;52163;52.212;-1.002;2022-07-06T08:10:24;101617.06;;;20.70;58.67
62952;BME280;52163;52.212;-1.002;2022-07-06T08:12:49;101613.79;;;20.75;58.67
62952;BME280;52163;52.212;-1.002;2022-07-06T08:15:14;101614.04;;;20.83;58.33
62952;BME280;52163;52.212;-1.002;2022-07-06T08:17:40;101610.95;;;20.84;58.17
62952;BME280;52163;52.212;-1.002;2022-07-06T08:20:06;101605.33;;;20.80;57.97
62952;BME280;52163;52.212;-1.002;2022-07-06T08:22:35;101602.60;;;20.82;58.21
62952;BME280;52163;52.212;-1.002;2022-07-06T08:25:00;101601.09;;;20.89;57.82
62952;BME280;52163;52.212;-1.002;2022-07-06T08:27:26;101601.42;;;20.98;57.93
62952;BME280;52163;52.212;-1.002;2022-07-06T08:29:51;101602.01;;;21.06;57.46
62952;BME280;52163;52.212;-1.002;2022-07-06T08:32:16;101608.25;;;21.02;57.15
62952;BME280;52163;52.212;-1.002;2022-07-06T08:34:42;101607.69;;;20.94;56.99
62952;BME280;52163;52.212;-1.002;2022-07-06T08:37:09;101610.41;;;20.85;57.22
62952;BME280;52163;52.212;-1.002;2022-07-06T08:39:34;101609.05;;;20.78;57.41
62952;BME280;52163;52.212;-1.002;2022-07-06T08:42:00;101612.83;;;20.69;57.49
62952;BME280;52163;52.212;-1.002;2022-07-06T08:44:29;101612.73;;;20.65;57.85
62952;BME280;52163;52.212;-1.002;2022-07-06T08:46:57;101620.95;;;20.65;57.79
62952;BME280;52163;52.212;-1.002;2022-07-06T08:49:25;101625.48;;;20.77;57.90
62952;BME280;52163;52.212;-1.002;2022-07-06T08:51:52;101627.85;;;20.91;57.62
62952;BME280;52163;52.212;-1.002;2022-07-06T08:54:18;101630.02;;;21.06;57.60
62952;BME280;52163;52.212;-1.002;2022-07-06T08:56:45;101623.83;;;21.29;57.20
62952;BME280;52163;52.212;-1.002;2022-07-06T08:59:11;101625.39;;;21.53;56.70
62952;BME280;52163;52.212;-1.002;2022-07-06T09:01:38;101627.68;;;21.82;56.26
62952;BME280;52163;52.212;-1.002;2022-07-06T09:04:05;101635.98;;;22.07;55.54
62952;BME280;52163;52.212;-1.002;2022-07-06T09:06:34;101628.56;;;22.17;55.13
62952;BME280;52163;52.212;-1.002;2022-07-06T09:09:05;101627.00;;;22.11;55.07
62952;BME280;52163;52.212;-1.002;2022-07-06T09:11:31;101626.07;;;22.03;54.89
62952;BME280;52163;52.212;-1.002;2022-07-06T09:13:57;101623.77;;;21.99;54.93
62952;BME280;52163;52.212;-1.002;2022-07-06T09:16:27;101626.77;;;21.98;55.12
62952;BME280;52163;52.212;-1.002;2022-07-06T09:18:54;101625.80;;;21.98;55.32
62952;BME280;52163;52.212;-1.002;2022-07-06T09:21:27;101621.47;;;22.09;55.26
62952;BME280;52163;52.212;-1.002;2022-07-06T09:23:58;101617.58;;;22.22;54.99
62952;BME280;52163;52.212;-1.002;2022-07-06T09:26:25;101612.58;;;22.37;54.60
62952;BME280;52163;52.212;-1.002;2022-07-06T09:28:51;101610.73;;;22.41;54.42
62952;BME280;52163;52.212;-1.002;2022-07-06T09:31:16;101608.80;;;22.44;54.40
62952;BME280;52163;52.212;-1.002;2022-07-06T09:34:03;101607.80;;;22.44;54.50
62952;BME280;52163;52.212;-1.002;2022-07-06T09:39:28;101612.34;;;22.41;54.15
62952;BME280;52163;52.212;-1.002;2022-07-06T09:41:55;101610.65;;;22.42;54.26
62952;BME280;52163;52.212;-1.002;2022-07-06T09:44:38;101608.48;;;22.44;53.96
62952;BME280;52163;52.212;-1.002;2022-07-06T09:47:09;101608.43;;;22.34;53.53
62952;BME280;52163;52.212;-1.002;2022-07-06T09:49:36;101609.89;;;22.44;53.71
62952;BME280;52163;52.212;-1.002;2022-07-06T09:52:07;101600.71;;;22.71;53.24
62952;BME280;52163;52.212;-1.002;2022-07-06T09:54:34;101597.23;;;22.87;52.68
62952;BME280;52163;52.212;-1.002;2022-07-06T09:57:04;101599.76;;;22.99;52.51
62952;BME280;52163;52.212;-1.002;2022-07-06T09:59:32;101604.94;;;23.08;52.21
62952;BME280;52163;52.212;-1.002;2022-07-06T10:02:03;101611.42;;;23.16;52.27
62952;BME280;52163;52.212;-1.002;2022-07-06T10:04:29;101604.56;;;23.09;52.07
62952;BME280;52163;52.212;-1.002;2022-07-06T10:06:57;101596.52;;;22.99;52.39
62952;BME280;52163;52.212;-1.002;2022-07-06T10:09:25;101600.58;;;22.88;52.27
62952;BME280;52163;52.212;-1.002;2022-07-06T10:14:21;101593.57;;;22.67;52.31
62952;BME280;52163;52.212;-1.002;2022-07-06T10:16:48;101601.08;;;22.56;52.52
62952;BME280;52163;52.212;-1.002;2022-07-06T10:19:16;101603.50;;;22.53;52.62
62952;BME280;52163;52.212;-1.002;2022-07-06T10:21:43;101605.73;;;22.54;52.68
62952;BME280;52163;52.212;-1.002;2022-07-06T10:24:09;101611.80;;;22.55;52.71
62952;BME280;52163;52.212;-1.002;2022-07-06T10:26:36;101610.80;;;22.46;52.59
62952;BME280;52163;52.212;-1.002;2022-07-06T10:29:03;101614.94;;;22.40;52.94
62952;BME280;52163;52.212;-1.002;2022-07-06T10:31:30;101609.95;;;22.38;52.80
62952;BME280;52163;52.212;-1.002;2022-07-06T10:33:57;101613.75;;;22.40;52.86
62952;BME280;52163;52.212;-1.002;2022-07-06T10:36:24;101611.55;;;22.50;52.95
62952;BME280;52163;52.212;-1.002;2022-07-06T10:38:51;101615.65;;;22.58;52.75
62952;BME280;52163;52.212;-1.002;2022-07-06T10:41:17;101613.16;;;22.59;52.77
62952;BME280;52163;52.212;-1.002;2022-07-06T10:43:45;101608.08;;;22.62;52.82
62952;BME280;52163;52.212;-1.002;2022-07-06T10:46:16;101605.08;;;22.69;52.82
62952;BME280;52163;52.212;-1.002;2022-07-06T10:48:46;101603.04;;;22.75;52.41
62952;BME280;52163;52.212;-1.002;2022-07-06T10:51:21;101604.33;;;22.77;52.40
62952;BME280;52163;52.212;-1.002;2022-07-06T10:54:04;101597.40;;;22.70;52.08
62952;BME280;52163;52.212;-1.002;2022-07-06T10:56:36;101604.14;;;22.44;52.30
62952;BME280;52163;52.212;-1.002;2022-07-06T10:59:15;101609.52;;;22.19;52.86
62952;BME280;52163;52.212;-1.002;2022-07-06T11:02:19;101610.02;;;22.00;53.39
62952;BME280;52163;52.212;-1.002;2022-07-06T11:04:48;101611.32;;;21.94;53.78
62952;BME280;52163;52.212;-1.002;2022-07-06T11:07:18;101607.89;;;21.91;53.76
62952;BME280;52163;52.212;-1.002;2022-07-06T11:10:02;101605.95;;;21.83;53.87
62952;BME280;52163;52.212;-1.002;2022-07-06T11:12:27;101600.91;;;21.73;54.00
62952;BME280;52163;52.212;-1.002;2022-07-06T11:14:53;101603.25;;;21.69;53.78
62952;BME280;52163;52.212;-1.002;2022-07-06T11:17:19;101606.29;;;21.63;54.06
62952;BME280;52163;52.212;-1.002;2022-07-06T11:19:49;101604.83;;;21.59;54.32
62952;BME280;52163;52.212;-1.002;2022-07-06T11:22:16;101608.25;;;21.53;54.69
62952;BME280;52163;52.212;-1.002;2022-07-06T11:24:44;101602.79;;;21.40;54.78
62952;BME280;52163;52.212;-1.002;2022-07-06T11:27:09;101602.11;;;21.27;55.01
62952;BME280;52163;52.212;-1.002;2022-07-06T11:29:36;101601.23;;;21.13;55.35
62952;BME280;52163;52.212;-1.002;2022-07-06T11:32:06;101600.21;;;21.00;55.67
62952;BME280;52163;52.212;-1.002;2022-07-06T11:34:36;101594.60;;;20.90;56.03
62952;BME280;52163;52.212;-1.002;2022-07-06T11:37:06;101599.16;;;20.80;56.10
62952;BME280;52163;52.212;-1.002;2022-07-06T11:39:34;101593.64;;;20.71;56.25
62952;BME280;52163;52.212;-1.002;2022-07-06T11:42:01;101591.96;;;20.72;56.54
62952;BME280;52163;52.212;-1.002;2022-07-06T11:44:29;101593.14;;;20.80;56.30
62952;BME280;52163;52.212;-1.002;2022-07-06T11:46:55;101596.30;;;20.89;56.21
62952;BME280;52163;52.212;-1.002;2022-07-06T11:49:23;101594.55;;;20.99;56.20
62952;BME280;52163;52.212;-1.002;2022-07-06T11:51:48;101596.55;;;21.05;56.11
62952;BME280;52163;52.212;-1.002;2022-07-06T11:54:19;101595.05;;;21.11;55.90
62952;BME280;52163;52.212;-1.002;2022-07-06T11:59:15;101590.24;;;21.48;55.42
62952;BME280;52163;52.212;-1.002;2022-07-06T12:01:41;101589.84;;;21.66;55.22
62952;BME280;52163;52.212;-1.002;2022-07-06T12:04:10;101590.21;;;21.90;54.88
62952;BME280;52163;52.212;-1.002;2022-07-06T12:06:36;101583.44;;;22.11;54.23
62952;BME280;52163;52.212;-1.002;2022-07-06T12:09:02;101578.27;;;22.32;53.57
62952;BME280;52163;52.212;-1.002;2022-07-06T12:11:34;101564.02;;;22.54;53.07
62952;BME280;52163;52.212;-1.002;2022-07-06T12:14:02;101562.99;;;22.85;52.71
62952;BME280;52163;52.212;-1.002;2022-07-06T12:16:30;101558.66;;;23.23;52.11
62952;BME280;52163;52.212;-1.002;2022-07-06T12:18:58;101559.39;;;23.62;51.16
62952;BME280;52163;52.212;-1.002;2022-07-06T12:21:24;101554.70;;;23.95;50.87
62952;BME280;52163;52.212;-1.002;2022-07-06T12:23:52;101555.91;;;24.27;50.47
62952;BME280;52163;52.212;-1.002;2022-07-06T12:26:24;101561.53;;;24.63;49.76
62952;BME280;52163;52.212;-1.002;2022-07-06T12:29:07;101564.72;;;24.91;48.63
62952;BME280;52163;52.212;-1.002;2022-07-06T12:34:17;101565.83;;;25.42;47.27
62952;BME280;52163;52.212;-1.002;2022-07-06T12:36:54;101564.60;;;25.66;46.69
62952;BME280;52163;52.212;-1.002;2022-07-06T12:39:22;101568.20;;;25.87;46.02
62952;BME280;52163;52.212;-1.002;2022-07-06T12:44:20;101551.28;;;26.00;45.19
62952;BME280;52163;52.212;-1.002;2022-07-06T12:46:46;101548.23;;;26.00;44.61
62952;BME280;52163;52.212;-1.002;2022-07-06T12:49:22;101544.23;;;25.84;44.48
62952;BME280;52163;52.212;-1.002;2022-07-06T12:52:03;101546.89;;;25.66;44.37